createdAt,value
2022-08-31T00:02:17.156Z,23.10
2022-08-31T00:05:20.443Z,23.00
2022-08-31T00:08:23.599Z,23.00
2022-08-31T00:11:30.909Z,22.90
2022-08-31T00:14:34.024Z,22.90
2022-08-31T00:17:38.562Z,22.90
2022-08-31T00:20:42.232Z,22.90
2022-08-31T00:23:45.324Z,22.90
2022-08-31T00:26:48.878Z,22.90
2022-08-31T00:29:51.979Z,22.80
2022-08-31T00:32:58.370Z,22.80
2022-08-31T00:36:01.774Z,22.80
2022-08-31T00:39:06.068Z,22.80
2022-08-31T00:42:09.769Z,22.80
2022-08-31T00:45:12.890Z,22.80
2022-08-31T00:48:17.385Z,22.70
2022-08-31T00:51:20.903Z,22.70
2022-08-31T00:54:28.147Z,22.70
2022-08-31T00:57:35.206Z,22.70
2022-08-31T01:00:40.393Z,22.70
2022-08-31T01:03:44.918Z,22.70
2022-08-31T01:06:49.351Z,22.70
2022-08-31T01:09:55.879Z,22.70
2022-08-31T01:13:00.220Z,22.70
2022-08-31T01:16:08.890Z,22.70
2022-08-31T01:19:21.106Z,22.70
2022-08-31T01:22:31.599Z,22.60
2022-08-31T01:25:37.473Z,22.60
2022-08-31T01:28:40.585Z,22.40
2022-08-31T01:31:45.784Z,22.30
2022-08-31T01:34:48.966Z,22.10
2022-08-31T01:37:53.038Z,22.10
2022-08-31T01:41:01.965Z,22.20
2022-08-31T01:44:05.076Z,22.10
2022-08-31T01:47:08.244Z,22.10
2022-08-31T01:50:11.396Z,22.10
2022-08-31T01:53:14.567Z,22.20
2022-08-31T01:56:22.242Z,22.10
2022-08-31T01:59:25.796Z,22.00
2022-08-31T02:02:29.012Z,22.00
2022-08-31T02:05:32.319Z,22.00
2022-08-31T02:08:35.754Z,22.10
2022-08-31T02:11:40.484Z,22.10
2022-08-31T02:14:43.776Z,22.10
2022-08-31T02:17:46.898Z,22.10
2022-08-31T02:20:49.984Z,22.10
2022-08-31T02:23:53.126Z,22.10
2022-08-31T02:26:57.649Z,22.00
2022-08-31T02:30:01.138Z,22.00
2022-08-31T02:33:04.341Z,22.00
2022-08-31T02:36:08.059Z,22.00
2022-08-31T02:39:14.883Z,21.90
2022-08-31T02:42:19.470Z,21.90
2022-08-31T02:45:22.840Z,21.90
2022-08-31T02:48:25.936Z,21.80
2022-08-31T02:51:29.246Z,21.80
2022-08-31T02:54:32.702Z,21.80
2022-08-31T02:57:37.165Z,21.70
2022-08-31T03:00:41.534Z,21.60
2022-08-31T03:03:46.428Z,21.60
2022-08-31T03:06:51.903Z,21.60
2022-08-31T03:09:55.009Z,21.60
2022-08-31T03:12:59.490Z,21.60
2022-08-31T03:16:02.815Z,21.60
2022-08-31T03:19:05.983Z,21.60
2022-08-31T03:22:09.275Z,21.60
2022-08-31T03:25:12.462Z,21.50
2022-08-31T03:28:17.122Z,21.50
2022-08-31T03:31:20.249Z,21.50
2022-08-31T03:34:23.561Z,21.40
2022-08-31T03:37:27.410Z,21.40
2022-08-31T03:40:31.438Z,21.30
2022-08-31T03:43:37.492Z,21.30
2022-08-31T03:46:44.466Z,21.30
2022-08-31T03:49:47.863Z,21.30
2022-08-31T03:52:50.980Z,21.30
2022-08-31T03:56:01.093Z,21.30
2022-08-31T03:59:05.661Z,21.40
2022-08-31T04:02:08.841Z,21.40
2022-08-31T04:05:13.421Z,21.30
2022-08-31T04:08:18.248Z,21.20
2022-08-31T04:11:37.174Z,21.30
2022-08-31T04:14:46.529Z,21.30
2022-08-31T04:17:49.913Z,21.30
2022-08-31T04:21:00.085Z,21.30
2022-08-31T04:24:04.259Z,21.30
2022-08-31T04:27:07.379Z,21.30
2022-08-31T04:30:13.244Z,21.30
2022-08-31T04:33:16.993Z,21.30
2022-08-31T04:36:22.350Z,21.30
2022-08-31T04:39:25.575Z,21.30
2022-08-31T04:42:30.094Z,21.30
2022-08-31T04:45:34.622Z,21.30
2022-08-31T04:48:37.931Z,21.20
2022-08-31T04:51:41.400Z,21.20
2022-08-31T04:54:44.495Z,21.30
2022-08-31T04:57:47.567Z,21.30
2022-08-31T05:00:53.108Z,21.30
2022-08-31T05:03:57.937Z,21.40
2022-08-31T05:07:01.783Z,21.40
2022-08-31T05:10:06.044Z,21.40
2022-08-31T05:13:09.133Z,21.50
2022-08-31T05:16:16.235Z,21.50
2022-08-31T05:19:19.573Z,21.50
2022-08-31T05:22:22.744Z,21.60
2022-08-31T05:25:25.844Z,21.70
2022-08-31T05:28:29.104Z,21.90
2022-08-31T05:31:34.464Z,22.00
2022-08-31T05:34:37.761Z,22.10
2022-08-31T05:37:41.128Z,22.10
2022-08-31T05:40:44.306Z,22.20
2022-08-31T05:43:47.463Z,22.20
2022-08-31T05:46:52.221Z,22.10
2022-08-31T05:50:00.467Z,22.20
2022-08-31T05:53:04.293Z,22.20
2022-08-31T05:56:10.695Z,22.10
2022-08-31T05:59:14.245Z,22.10
2022-08-31T06:02:18.852Z,22.20
2022-08-31T06:05:22.352Z,22.30
2022-08-31T06:08:27.288Z,22.30
2022-08-31T06:11:32.966Z,22.30
2022-08-31T06:14:36.488Z,22.30
2022-08-31T06:17:41.326Z,22.30
2022-08-31T06:20:44.442Z,22.40
2022-08-31T06:23:48.426Z,22.50
2022-08-31T06:26:58.420Z,22.60
2022-08-31T06:30:03.757Z,22.80
2022-08-31T06:33:11.755Z,22.90
2022-08-31T06:36:17.349Z,23.00
2022-08-31T06:39:20.606Z,23.10
2022-08-31T06:42:23.733Z,23.30
2022-08-31T06:45:26.836Z,23.50
2022-08-31T06:48:31.329Z,23.60
2022-08-31T06:51:36.758Z,23.80
2022-08-31T06:54:39.925Z,23.90
2022-08-31T06:57:43.049Z,24.00
2022-08-31T07:00:48.575Z,24.00
2022-08-31T07:03:53.128Z,24.00
2022-08-31T07:06:56.319Z,23.90
2022-08-31T07:10:00.188Z,23.90
2022-08-31T07:13:03.371Z,24.00
2022-08-31T07:16:08.746Z,23.90
2022-08-31T07:19:14.220Z,24.00
2022-08-31T07:22:17.394Z,24.10
2022-08-31T07:25:20.520Z,24.00
2022-08-31T07:28:25.146Z,23.90
2022-08-31T07:31:44.049Z,23.80
2022-08-31T07:34:55.181Z,23.70
2022-08-31T07:38:17.881Z,23.60
2022-08-31T07:41:39.072Z,23.40
2022-08-31T07:44:42.521Z,23.10
2022-08-31T07:47:56.473Z,22.90
2022-08-31T07:51:00.990Z,22.70
2022-08-31T07:54:06.872Z,22.70
2022-08-31T07:57:10.134Z,22.70
2022-08-31T08:00:15.245Z,22.70
2022-08-31T08:03:18.880Z,22.50
2022-08-31T08:06:28.538Z,22.40
2022-08-31T08:09:33.952Z,22.30
2022-08-31T08:12:38.625Z,22.40
2022-08-31T08:15:41.801Z,22.50
2022-08-31T08:18:45.352Z,22.50
2022-08-31T08:21:51.055Z,22.50
2022-08-31T08:24:58.110Z,22.60
2022-08-31T08:28:17.160Z,22.80
2022-08-31T08:31:26.050Z,23.10
2022-08-31T08:34:32.633Z,23.40
2022-08-31T08:37:57.125Z,23.60
2022-08-31T08:41:07.355Z,23.90
2022-08-31T08:44:14.708Z,24.30
2022-08-31T08:47:26.331Z,24.70
2022-08-31T08:50:42.470Z,25.10
2022-08-31T08:53:51.255Z,25.30
2022-08-31T08:56:54.397Z,25.90
2022-08-31T09:00:01.114Z,26.80
2022-08-31T09:03:07.349Z,27.40
2022-08-31T09:06:14.405Z,27.40
2022-08-31T09:09:31.155Z,27.00
2022-08-31T09:12:44.961Z,26.40
2022-08-31T09:16:04.642Z,26.00
2022-08-31T09:19:11.880Z,25.70
2022-08-31T09:22:15.050Z,25.80
2022-08-31T09:25:26.622Z,26.20
2022-08-31T09:28:36.003Z,26.50
2022-08-31T09:31:46.662Z,27.40
2022-08-31T09:34:54.819Z,29.10
2022-08-31T09:38:07.006Z,29.90
2022-08-31T09:41:23.258Z,31.40
2022-08-31T09:44:32.384Z,31.60
2022-08-31T09:47:48.642Z,30.90
2022-08-31T09:51:02.682Z,29.80
2022-08-31T09:54:25.671Z,28.80
2022-08-31T09:57:46.335Z,28.30
2022-08-31T10:00:52.503Z,27.60
2022-08-31T10:04:16.130Z,27.60
2022-08-31T10:07:32.580Z,27.80
2022-08-31T10:10:38.839Z,27.90
2022-08-31T10:13:49.731Z,27.80
2022-08-31T10:17:00.370Z,27.90
2022-08-31T10:20:10.443Z,28.00
2022-08-31T10:23:19.150Z,28.10
2022-08-31T10:26:34.069Z,28.00
2022-08-31T10:29:47.808Z,27.90
2022-08-31T10:32:58.278Z,27.60
2022-08-31T10:36:02.496Z,27.60
2022-08-31T10:39:17.589Z,27.50
2022-08-31T10:42:30.125Z,27.60
2022-08-31T10:45:38.708Z,27.80
2022-08-31T10:48:54.717Z,27.90
2022-08-31T10:52:05.282Z,28.00
2022-08-31T10:55:15.844Z,28.20
2022-08-31T10:58:31.050Z,28.40
2022-08-31T11:01:47.532Z,28.60
2022-08-31T11:04:58.816Z,28.70
2022-08-31T11:08:13.976Z,29.00
2022-08-31T11:11:30.387Z,29.10
2022-08-31T11:14:57.091Z,28.70
2022-08-31T11:18:46.136Z,28.30
2022-08-31T11:22:28.643Z,27.70
2022-08-31T11:26:01.529Z,27.20
2022-08-31T11:29:15.983Z,26.80
2022-08-31T11:32:23.892Z,26.60
2022-08-31T11:36:03.880Z,26.30
2022-08-31T11:39:37.543Z,26.10
2022-08-31T11:43:01.407Z,25.80
2022-08-31T11:46:38.175Z,25.70
2022-08-31T11:49:46.442Z,25.50
2022-08-31T11:52:53.712Z,25.40
2022-08-31T11:56:00.737Z,25.30
2022-08-31T11:59:23.161Z,25.20
2022-08-31T12:02:45.428Z,25.10
2022-08-31T12:05:58.083Z,25.00
2022-08-31T12:09:24.058Z,24.80
2022-08-31T12:13:09.470Z,24.70
2022-08-31T12:16:28.170Z,24.50
2022-08-31T12:20:02.426Z,24.30
2022-08-31T12:23:37.669Z,24.10
2022-08-31T12:26:53.035Z,23.90
2022-08-31T12:30:21.268Z,23.70
2022-08-31T12:33:27.360Z,23.60
2022-08-31T12:36:33.660Z,23.40
2022-08-31T12:39:36.757Z,23.30
2022-08-31T12:42:48.762Z,23.30
2022-08-31T12:46:17.743Z,23.30
2022-08-31T12:49:47.218Z,23.40
2022-08-31T12:53:26.381Z,23.30
2022-08-31T12:56:38.398Z,23.30
2022-08-31T13:00:01.711Z,23.30
2022-08-31T13:03:15.610Z,23.20
2022-08-31T13:06:26.120Z,23.20
2022-08-31T13:09:32.340Z,23.20
2022-08-31T13:12:35.960Z,23.10
2022-08-31T13:15:42.812Z,23.00
2022-08-31T13:18:46.347Z,22.90
2022-08-31T13:21:56.176Z,22.70
2022-08-31T13:25:16.515Z,22.60
2022-08-31T13:28:26.105Z,22.40
2022-08-31T13:31:35.521Z,22.40
2022-08-31T13:34:42.219Z,22.30
2022-08-31T13:38:00.231Z,22.20
2022-08-31T13:41:05.962Z,22.20
2022-08-31T13:44:13.554Z,22.10
2022-08-31T13:47:24.195Z,22.00
2022-08-31T13:50:34.028Z,21.90
2022-08-31T13:53:40.540Z,21.80
2022-08-31T13:56:58.977Z,21.70
2022-08-31T14:00:28.328Z,21.70
2022-08-31T14:03:45.090Z,21.50
2022-08-31T14:06:52.376Z,21.40
2022-08-31T14:09:58.734Z,21.30
2022-08-31T14:13:04.384Z,21.30
2022-08-31T14:16:09.568Z,21.20
2022-08-31T14:19:14.332Z,21.20
2022-08-31T14:22:28.540Z,21.10
2022-08-31T14:25:34.442Z,21.10
2022-08-31T14:28:41.927Z,21.00
2022-08-31T14:31:49.445Z,21.00
2022-08-31T14:34:54.025Z,20.90
2022-08-31T14:37:57.182Z,20.80
2022-08-31T14:41:00.343Z,20.80
2022-08-31T14:44:10.305Z,20.70
2022-08-31T14:47:14.305Z,20.70
2022-08-31T14:50:23.544Z,20.70
2022-08-31T14:53:31.851Z,20.60
2022-08-31T14:56:39.046Z,20.70
2022-08-31T14:59:44.768Z,20.70
2022-08-31T15:02:48.267Z,20.70
2022-08-31T15:05:52.808Z,20.60
2022-08-31T15:08:55.911Z,20.60
2022-08-31T15:12:01.228Z,20.60
2022-08-31T15:15:04.527Z,20.50
2022-08-31T15:18:07.802Z,20.50
2022-08-31T15:21:13.293Z,20.50
2022-08-31T15:24:16.773Z,20.50
2022-08-31T15:27:22.416Z,20.50
2022-08-31T15:30:25.611Z,20.50
2022-08-31T15:33:31.309Z,20.70
2022-08-31T15:36:36.568Z,20.70
2022-08-31T15:39:43.478Z,20.70
2022-08-31T15:42:46.647Z,20.70
2022-08-31T15:45:49.896Z,20.70
2022-08-31T15:48:52.129Z,20.70
2022-08-31T15:51:56.757Z,20.60
2022-08-31T15:55:01.066Z,20.60
2022-08-31T15:58:04.315Z,20.50
2022-08-31T16:01:12.705Z,20.30
2022-08-31T16:04:23.580Z,20.40
2022-08-31T16:07:28.464Z,20.40
2022-08-31T16:10:31.906Z,20.30
2022-08-31T16:13:35.054Z,20.20
2022-08-31T16:16:40.852Z,20.00
2022-08-31T16:19:44.035Z,19.80
2022-08-31T16:22:48.600Z,19.70
2022-08-31T16:25:52.883Z,19.60
2022-08-31T16:28:56.326Z,19.50
2022-08-31T16:32:00.248Z,19.50
2022-08-31T16:35:04.593Z,19.50
2022-08-31T16:38:09.096Z,19.40
2022-08-31T16:41:12.784Z,19.40
2022-08-31T16:44:19.867Z,19.20
2022-08-31T16:47:23.610Z,19.20
2022-08-31T16:50:25.761Z,19.10
2022-08-31T16:53:30.366Z,19.10
2022-08-31T16:56:35.716Z,19.00
2022-08-31T16:59:41.123Z,18.90
2022-08-31T17:02:44.275Z,18.90
2022-08-31T17:05:49.059Z,18.80
2022-08-31T17:08:56.222Z,18.80
2022-08-31T17:12:01.045Z,18.80
2022-08-31T17:15:04.469Z,18.90
2022-08-31T17:18:07.694Z,19.00
2022-08-31T17:21:17.346Z,19.10
2022-08-31T17:24:24.394Z,19.20
2022-08-31T17:27:28.356Z,19.20
2022-08-31T17:30:32.375Z,19.20
2022-08-31T17:33:35.534Z,19.20
2022-08-31T17:36:40.996Z,19.30
2022-08-31T17:39:47.301Z,19.30
2022-08-31T17:42:52.920Z,19.30
2022-08-31T17:45:58.037Z,19.30
2022-08-31T17:49:01.324Z,19.20
2022-08-31T17:52:07.979Z,19.20
2022-08-31T17:55:13.081Z,19.10
2022-08-31T17:58:16.270Z,19.10
2022-08-31T18:01:20.436Z,19.20
2022-08-31T18:04:25.147Z,19.20
2022-08-31T18:07:28.722Z,19.30
2022-08-31T18:10:33.759Z,19.30
2022-08-31T18:13:36.967Z,19.20
2022-08-31T18:16:41.265Z,19.20
2022-08-31T18:19:45.046Z,19.20
2022-08-31T18:22:52.257Z,19.20
2022-08-31T18:25:57.126Z,19.20
2022-08-31T18:29:00.771Z,19.20
2022-08-31T18:32:05.860Z,19.20
2022-08-31T18:35:13.878Z,19.20
2022-08-31T18:38:17.438Z,19.20
2022-08-31T18:41:41.257Z,19.10
2022-08-31T18:45:01.774Z,19.10
2022-08-31T18:51:29.913Z,19.10
2022-08-31T18:54:34.219Z,19.10
2022-08-31T18:57:48.741Z,19.10
2022-08-31T19:00:57.880Z,19.00
2022-08-31T19:04:03.263Z,18.90
2022-08-31T19:07:07.428Z,18.90
2022-08-31T19:10:13.100Z,18.90
2022-08-31T19:13:18.126Z,18.90
2022-08-31T19:16:24.602Z,18.80
2022-08-31T19:19:28.795Z,18.90
2022-08-31T19:22:32.209Z,18.80
2022-08-31T19:25:36.956Z,18.80
2022-08-31T19:28:41.781Z,18.70
2022-08-31T19:31:47.658Z,18.80
2022-08-31T19:34:51.199Z,18.80
2022-08-31T19:37:54.839Z,18.80
2022-08-31T19:41:00.490Z,18.70
2022-08-31T19:44:08.754Z,18.70
2022-08-31T19:47:24.431Z,18.80
2022-08-31T19:50:28.206Z,18.80
2022-08-31T19:53:31.717Z,18.70
2022-08-31T19:56:35.246Z,18.70
2022-08-31T19:59:40.037Z,18.70
2022-08-31T20:02:44.787Z,18.70
2022-08-31T20:05:48.160Z,18.70
2022-08-31T20:08:52.597Z,18.60
2022-08-31T20:11:59.934Z,18.70
2022-08-31T20:15:05.196Z,18.70
2022-08-31T20:18:11.426Z,18.70
2022-08-31T20:21:19.967Z,18.70
2022-08-31T20:24:25.561Z,18.70
2022-08-31T20:27:31.051Z,18.80
2022-08-31T20:30:38.360Z,18.90
2022-08-31T20:33:43.220Z,18.80
2022-08-31T20:36:48.329Z,18.90
2022-08-31T20:39:52.048Z,18.80
2022-08-31T20:42:55.408Z,18.80
2022-08-31T20:46:02.513Z,18.70
2022-08-31T20:49:23.402Z,18.80
2022-08-31T20:52:28.807Z,18.80
2022-08-31T20:55:31.931Z,18.70
2022-08-31T20:58:35.106Z,18.70
2022-08-31T21:01:40.943Z,18.60
2022-08-31T21:04:45.398Z,18.50
2022-08-31T21:07:48.564Z,18.50
2022-08-31T21:10:51.691Z,18.50
2022-08-31T21:13:55.570Z,18.50
2022-08-31T21:17:01.177Z,18.50
2022-08-31T21:20:05.917Z,18.50
2022-08-31T21:23:10.458Z,18.50
2022-08-31T21:26:19.677Z,18.50
2022-08-31T21:29:22.750Z,18.50
2022-08-31T21:32:27.242Z,18.40
2022-08-31T21:35:30.517Z,18.40
2022-08-31T21:38:33.873Z,18.50
2022-08-31T21:41:38.545Z,18.40
2022-08-31T21:44:41.692Z,18.40
2022-08-31T21:47:46.198Z,18.40
2022-08-31T21:50:49.292Z,18.40
2022-08-31T21:53:54.479Z,18.40
2022-08-31T21:56:59.329Z,18.30
2022-08-31T22:00:02.687Z,18.30
2022-08-31T22:03:08.075Z,18.30
2022-08-31T22:06:13.518Z,18.30
2022-08-31T22:09:19.734Z,18.30
2022-08-31T22:12:23.991Z,18.30
2022-08-31T22:15:28.356Z,18.20
2022-08-31T22:19:00.309Z,18.30
2022-08-31T22:21:59.093Z,18.20
2022-08-31T22:25:03.383Z,18.20
2022-08-31T22:28:07.416Z,18.20
2022-08-31T22:31:11.860Z,18.20
2022-08-31T22:34:17.958Z,18.20
2022-08-31T22:37:21.108Z,18.20
2022-08-31T22:40:24.309Z,18.20
2022-08-31T22:43:27.459Z,18.20
2022-08-31T22:46:30.688Z,18.20
2022-08-31T22:49:35.411Z,18.30
2022-08-31T22:52:38.606Z,18.20
2022-08-31T22:55:43.121Z,18.30
2022-08-31T22:58:47.158Z,18.30
2022-08-31T23:01:55.144Z,18.30
2022-08-31T23:05:03.488Z,18.20
2022-08-31T23:08:07.715Z,18.20
2022-08-31T23:11:11.496Z,18.20
2022-08-31T23:14:14.614Z,18.10
2022-08-31T23:17:18.294Z,18.00
2022-08-31T23:20:24.512Z,18.00
2022-08-31T23:23:28.671Z,17.90
2022-08-31T23:26:31.971Z,17.90
2022-08-31T23:29:40.067Z,18.00
2022-08-31T23:32:44.275Z,17.90
2022-08-31T23:35:52.858Z,17.90
2022-08-31T23:38:57.314Z,17.90
2022-08-31T23:42:00.467Z,17.80
2022-08-31T23:45:03.653Z,17.70
2022-08-31T23:48:08.536Z,17.70
2022-08-31T23:51:15.782Z,17.50
2022-08-31T23:54:19.131Z,17.50
2022-08-31T23:57:32.928Z,17.40
